createdAt,value
2018-06-08T08:30:35.066Z,34.80
2018-06-08T08:40:29.492Z,34.60
2018-06-08T08:43:32.031Z,35.60
2018-06-08T08:46:00.773Z,34.20
2018-06-08T08:48:29.499Z,34.00
2018-06-08T08:50:58.081Z,32.00
2018-06-08T08:53:26.712Z,33.60
2018-06-08T08:58:23.703Z,33.50
2018-06-08T09:00:52.395Z,31.40
2018-06-08T09:03:21.015Z,31.70
2018-06-08T09:05:49.615Z,30.10
2018-06-08T09:08:18.254Z,30.40
2018-06-08T09:10:46.974Z,29.50
2018-06-08T09:13:16.046Z,27.20
2018-06-08T09:15:47.580Z,28.20
2018-06-08T09:18:16.431Z,28.00
2018-06-08T09:23:13.470Z,26.30
2018-06-08T09:25:42.277Z,27.00
2018-06-08T09:28:11.275Z,27.00
2018-06-08T09:33:08.341Z,27.10
2018-06-08T09:35:36.962Z,28.70
2018-06-08T09:38:05.776Z,28.30
2018-06-08T09:40:34.359Z,29.00
2018-06-08T09:43:03.091Z,26.90
2018-06-08T09:45:31.714Z,27.70
2018-06-08T09:48:00.446Z,28.50
2018-06-08T09:50:29.074Z,29.70
2018-06-08T09:52:57.698Z,28.20
2018-06-08T09:55:26.491Z,28.00
2018-06-08T09:57:55.119Z,28.20
2018-06-08T10:00:29.092Z,28.00
2018-06-08T10:02:57.728Z,27.30
2018-06-08T10:05:26.343Z,28.20
2018-06-08T10:07:55.003Z,27.50
2018-06-08T10:10:23.616Z,28.30
2018-06-08T10:12:53.386Z,27.70
2018-06-08T10:15:21.982Z,26.50
2018-06-08T10:17:50.628Z,27.60
2018-06-08T10:20:19.258Z,28.30
2018-06-08T10:22:48.012Z,27.60
2018-06-08T10:25:16.698Z,28.00
2018-06-08T10:30:13.672Z,28.80
2018-06-08T10:32:42.381Z,29.00
2018-06-08T10:35:11.017Z,29.00
2018-06-08T10:40:07.941Z,29.80
2018-06-08T10:42:36.554Z,30.10
2018-06-08T10:45:05.240Z,29.70
2018-06-08T10:47:33.889Z,28.80
2018-06-08T10:50:02.508Z,29.00
2018-06-08T10:54:59.603Z,28.60
2018-06-08T10:57:31.519Z,29.50
2018-06-08T11:00:00.173Z,29.50
2018-06-08T11:02:28.860Z,29.80
2018-06-08T11:07:25.902Z,30.00
2018-06-08T11:09:54.497Z,31.00
2018-06-08T11:12:23.147Z,30.30
2018-06-08T11:14:51.771Z,29.40
2018-06-08T11:17:20.539Z,30.00
2018-06-08T11:19:49.174Z,28.30
2018-06-08T11:22:17.930Z,29.00
2018-06-08T11:24:46.623Z,29.30
2018-06-08T11:27:15.345Z,29.30
2018-06-08T11:29:44.088Z,29.70
2018-06-08T11:32:12.730Z,29.20
2018-06-08T11:37:09.679Z,27.40
2018-06-08T11:39:38.356Z,27.60
2018-06-08T11:42:06.962Z,27.60
2018-06-08T11:44:35.641Z,27.90
2018-06-08T11:47:04.342Z,27.20
2018-06-08T11:52:01.324Z,27.00
2018-06-08T11:54:29.984Z,26.60
2018-06-08T11:59:27.035Z,27.60
2018-06-08T12:01:55.643Z,27.40
2018-06-08T12:04:24.372Z,28.40
2018-06-08T12:06:53.206Z,28.20
2018-06-08T12:11:50.177Z,26.50
2018-06-08T12:19:15.395Z,28.10
2018-06-08T12:26:40.522Z,27.20
2018-06-08T12:29:09.112Z,26.70
2018-06-08T12:31:37.678Z,26.90
2018-06-08T12:34:06.746Z,28.20
2018-06-08T12:36:35.399Z,28.00
2018-06-08T12:39:04.383Z,27.90
2018-06-08T12:44:01.227Z,26.80
2018-06-08T12:46:29.904Z,27.10
2018-06-08T12:48:58.477Z,27.10
2018-06-08T12:51:26.979Z,26.00
2018-06-08T12:56:23.779Z,26.10
2018-06-08T12:58:52.335Z,25.10
2018-06-08T13:01:20.818Z,25.80
2018-06-08T13:03:49.383Z,24.70
2018-06-08T13:06:17.931Z,24.80
2018-06-08T13:08:46.475Z,25.60
2018-06-08T13:11:15.140Z,26.20
2018-06-08T13:16:11.906Z,24.70
2018-06-08T13:18:40.470Z,24.40
2018-06-08T13:23:37.384Z,24.30
2018-06-08T13:26:06.029Z,25.00
2018-06-08T13:31:02.867Z,22.00
2018-06-08T13:33:31.364Z,22.60
2018-06-08T13:38:28.214Z,24.80
2018-06-08T13:43:25.033Z,23.10
2018-06-08T13:45:53.583Z,23.40
2018-06-08T13:48:22.066Z,24.60
2018-06-08T13:50:50.614Z,23.70
2018-06-08T13:53:19.116Z,23.90
2018-06-08T13:55:47.635Z,24.40
2018-06-08T13:58:16.135Z,24.80
2018-06-08T14:00:44.701Z,25.20
2018-06-08T14:03:13.203Z,24.20
2018-06-08T14:05:41.764Z,24.20
2018-06-08T14:08:10.370Z,24.20
2018-06-08T14:10:38.870Z,24.80
2018-06-08T14:13:09.881Z,24.40
2018-06-08T14:15:38.381Z,24.70
2018-06-08T14:18:07.036Z,23.90
2018-06-08T14:20:35.612Z,24.30
2018-06-08T14:23:04.193Z,22.70
2018-06-08T14:25:32.795Z,23.30
2018-06-08T14:28:01.451Z,23.10
2018-06-08T14:30:30.952Z,23.30
2018-06-08T14:32:59.652Z,23.60
2018-06-08T14:35:28.255Z,24.50
2018-06-08T14:37:56.811Z,23.40
2018-06-08T14:40:25.318Z,23.00
2018-06-08T14:42:53.885Z,23.60
2018-06-08T14:45:22.451Z,24.40
2018-06-08T14:47:50.933Z,24.20
2018-06-08T14:50:19.487Z,24.50
2018-06-08T14:55:16.290Z,24.10
2018-06-08T14:57:44.861Z,24.30
2018-06-08T15:00:13.356Z,24.40
2018-06-08T15:02:41.923Z,25.10
2018-06-08T15:05:10.536Z,22.80
2018-06-08T15:07:39.078Z,23.30
2018-06-08T15:10:08.164Z,22.90
2018-06-08T15:12:36.720Z,22.70
2018-06-08T15:15:05.270Z,23.40
2018-06-08T15:17:33.829Z,23.60
2018-06-08T15:20:02.365Z,22.90
2018-06-08T15:22:30.860Z,23.00
2018-06-08T15:24:59.409Z,23.60
2018-06-08T15:27:27.959Z,24.20
2018-06-08T15:29:56.626Z,23.90
2018-06-08T15:32:25.162Z,23.90
2018-06-08T15:34:53.701Z,23.40
2018-06-08T15:37:22.198Z,24.20
2018-06-08T15:39:50.738Z,23.70
2018-06-08T15:44:47.544Z,24.40
2018-06-08T15:47:16.085Z,25.00
2018-06-08T15:52:12.862Z,24.10
2018-06-08T15:54:41.374Z,24.80
2018-06-08T15:57:09.953Z,24.00
2018-06-08T15:59:38.501Z,23.60
2018-06-08T16:02:07.127Z,24.20
2018-06-08T16:04:35.735Z,24.90
2018-06-08T16:07:04.325Z,25.30
2018-06-08T16:09:32.816Z,24.20
2018-06-08T16:14:29.588Z,24.30
2018-06-08T16:16:59.691Z,24.70
2018-06-08T16:19:28.166Z,25.30
2018-06-08T16:21:56.703Z,23.60
2018-06-08T16:24:25.194Z,24.30
2018-06-08T16:26:53.812Z,24.70
2018-06-08T16:29:22.295Z,25.20
2018-06-08T16:31:50.825Z,25.40
2018-06-08T16:34:19.372Z,25.10
2018-06-08T16:39:16.131Z,26.50
2018-06-08T16:41:44.667Z,26.70
2018-06-08T16:44:13.263Z,26.70
2018-06-08T16:46:41.848Z,27.10
2018-06-08T16:49:10.362Z,26.70
2018-06-08T16:51:39.421Z,26.90
2018-06-08T16:56:37.138Z,27.10
2018-06-08T16:59:05.726Z,27.50
2018-06-08T17:01:34.274Z,27.80
2018-06-08T17:04:02.880Z,28.60
2018-06-08T17:06:31.522Z,28.60
2018-06-08T17:09:00.056Z,28.80
2018-06-08T17:11:28.630Z,28.10
2018-06-08T17:13:57.259Z,27.90
2018-06-08T17:16:26.185Z,27.90
2018-06-08T17:18:54.742Z,28.80
2018-06-08T17:23:53.337Z,28.60
2018-06-08T17:26:22.642Z,28.60
2018-06-08T17:28:51.799Z,29.10
2018-06-08T17:31:20.312Z,28.30
2018-06-08T17:33:48.917Z,28.20
2018-06-08T17:38:45.718Z,29.50
2018-06-08T17:41:14.247Z,29.70
2018-06-08T17:43:42.808Z,29.50
2018-06-08T17:46:11.334Z,30.30
2018-06-08T17:48:39.877Z,31.80
2018-06-08T17:51:09.550Z,33.00
2018-06-08T17:53:38.097Z,32.90
2018-06-08T17:56:06.631Z,32.50
2018-06-08T17:58:35.252Z,32.60
2018-06-08T18:01:03.798Z,32.30
2018-06-08T18:03:32.419Z,32.60
2018-06-08T18:08:29.226Z,35.10
2018-06-08T18:10:58.107Z,37.30
2018-06-08T18:13:26.666Z,37.90
2018-06-08T18:15:55.697Z,38.50
2018-06-08T18:18:25.556Z,39.10
2018-06-08T18:20:55.226Z,40.00
2018-06-08T18:25:53.093Z,42.40
2018-06-08T18:28:22.115Z,43.50
2018-06-08T18:30:50.627Z,45.20
2018-06-08T18:35:47.504Z,47.50
2018-06-08T18:38:16.037Z,48.70
2018-06-08T18:40:44.598Z,48.60
2018-06-08T18:43:13.203Z,49.70
2018-06-08T18:45:41.765Z,51.50
2018-06-08T18:48:10.314Z,53.10
2018-06-08T18:50:38.892Z,54.00
2018-06-08T18:55:35.686Z,55.00
2018-06-08T18:58:04.271Z,55.50
2018-06-08T19:00:32.869Z,55.20
2018-06-08T19:03:01.399Z,54.90
2018-06-08T19:05:29.967Z,55.00
2018-06-08T19:07:58.553Z,54.90
2018-06-08T19:12:55.418Z,54.30
2018-06-08T19:17:54.323Z,54.90
2018-06-08T19:20:24.071Z,54.70
2018-06-08T19:22:53.415Z,54.90
2018-06-08T19:25:22.395Z,55.40
2018-06-08T19:27:50.896Z,55.50
2018-06-08T19:30:19.630Z,56.00
2018-06-08T19:32:49.798Z,56.40
2018-06-08T19:35:19.079Z,56.60
2018-06-08T19:37:47.646Z,56.60
2018-06-08T19:40:16.175Z,56.80
2018-06-08T19:42:44.707Z,57.10
2018-06-08T19:45:13.231Z,57.50
2018-06-08T19:47:41.775Z,58.20
2018-06-08T19:50:10.329Z,58.80
2018-06-08T19:52:38.887Z,59.50
2018-06-08T19:55:07.464Z,61.00
2018-06-08T19:57:36.014Z,62.80
2018-06-08T20:00:04.687Z,60.90
2018-06-08T20:02:33.259Z,60.70
2018-06-08T20:05:01.849Z,60.50
2018-06-08T20:07:30.378Z,60.40
2018-06-08T20:09:58.907Z,59.80
2018-06-08T20:12:27.419Z,59.40
2018-06-08T20:14:56.101Z,59.50
2018-06-08T20:17:24.673Z,60.40
2018-06-08T20:19:53.822Z,61.40
2018-06-08T20:22:22.966Z,62.60
2018-06-08T20:24:51.977Z,63.20
2018-06-08T20:27:20.497Z,63.40
2018-06-08T20:32:17.299Z,63.40
2018-06-08T20:34:45.876Z,63.80
2018-06-08T20:37:14.362Z,63.70
2018-06-08T20:39:42.841Z,63.00
2018-06-08T20:42:11.403Z,62.30
2018-06-08T20:44:40.040Z,60.50
2018-06-08T20:47:08.554Z,59.20
2018-06-08T20:52:05.351Z,60.10
2018-06-08T20:54:33.823Z,60.10
2018-06-08T20:58:13.826Z,61.50
2018-06-08T21:00:42.383Z,61.00
2018-06-08T21:03:10.939Z,59.20
2018-06-08T21:05:39.405Z,59.20
2018-06-08T21:08:07.955Z,58.00
2018-06-08T21:10:36.448Z,58.50
2018-06-08T21:15:33.253Z,57.00
2018-06-08T21:18:01.795Z,57.40
2018-06-08T21:22:58.592Z,58.90
2018-06-08T21:25:27.160Z,59.00
2018-06-08T21:27:55.735Z,59.20
2018-06-08T21:30:25.264Z,58.30
2018-06-08T21:32:55.179Z,58.40
2018-06-08T21:35:23.733Z,58.50
2018-06-08T21:37:52.350Z,59.30
2018-06-08T21:40:21.320Z,59.60
2018-06-08T21:42:50.008Z,60.00
2018-06-08T21:45:18.669Z,61.30
2018-06-08T21:50:15.438Z,61.10
2018-06-08T21:55:12.262Z,62.50
2018-06-08T21:57:40.778Z,62.30
2018-06-08T22:02:37.551Z,62.90
2018-06-08T22:05:06.152Z,62.80
2018-06-08T22:07:34.727Z,63.50
2018-06-08T22:10:03.294Z,63.50
2018-06-08T22:12:31.857Z,63.40
2018-06-08T22:15:00.396Z,63.40
2018-06-08T22:17:28.910Z,62.30
2018-06-08T22:19:57.495Z,62.30
2018-06-08T22:22:26.071Z,63.50
2018-06-08T22:24:55.229Z,62.50
2018-06-08T22:27:24.851Z,62.10
2018-06-08T22:29:54.340Z,63.50
2018-06-08T22:32:23.122Z,64.00
2018-06-08T22:34:52.328Z,63.60
2018-06-08T22:37:20.843Z,64.10
2018-06-08T22:39:50.278Z,64.20
2018-06-08T22:42:18.831Z,62.50
2018-06-08T22:44:47.305Z,63.40
2018-06-08T22:47:15.848Z,63.30
2018-06-08T22:49:44.439Z,64.00
2018-06-08T22:52:12.970Z,63.20
2018-06-08T22:54:41.487Z,64.00
2018-06-08T22:57:10.055Z,64.40
2018-06-08T22:59:38.624Z,65.40
2018-06-08T23:04:35.425Z,67.20
2018-06-08T23:07:03.958Z,67.30
2018-06-08T23:09:32.539Z,68.10
2018-06-08T23:12:01.039Z,68.00
2018-06-08T23:16:57.789Z,66.20
2018-06-08T23:21:54.534Z,65.40
2018-06-08T23:24:24.111Z,64.80
2018-06-08T23:26:53.507Z,64.70
2018-06-08T23:29:22.800Z,65.50
2018-06-08T23:31:51.979Z,65.10
2018-06-08T23:34:20.458Z,65.00
2018-06-08T23:36:48.990Z,65.20
2018-06-08T23:39:17.541Z,65.00
2018-06-08T23:41:46.060Z,63.90
2018-06-08T23:44:14.601Z,62.90
2018-06-08T23:46:43.114Z,63.40
2018-06-08T23:49:11.614Z,63.00
2018-06-08T23:51:40.137Z,62.20
2018-06-08T23:54:08.630Z,63.40
2018-06-08T23:56:37.159Z,61.40
